Time;durP1;ratioP1;P1;durP2;ratioP2;P2;SDS_P1;SDS_P2;PMS_P1;PMS_P2;Temp;Humidity;BMP_temperature;BMP_pressure;BME280_temperature;BME280_humidity;BME280_pressure;Samples;Min_cycle;Max_cycle;Signal;HPM_P1;HPM_P2
2023/08/10 00:01:48;;;;;;;1.10;0.90;;;16.80;71.40;;;;;;5058717;28;20375;-61
2023/08/10 00:04:14;;;;;;;2.17;1.23;;;16.90;71.40;;;;;;5064843;28;20033;-62
2023/08/10 00:06:40;;;;;;;2.65;1.20;;;16.90;71.20;;;;;;5065731;28;20430;-61
2023/08/10 00:09:07;;;;;;;1.25;1.10;;;16.80;71.20;;;;;;5060937;28;20051;-61
2023/08/10 00:11:34;;;;;;;1.17;0.93;;;16.80;71.10;;;;;;5068517;28;20047;-62
2023/08/10 00:14:00;;;;;;;3.47;1.33;;;17.00;71.30;;;;;;5056341;28;20648;-61
2023/08/10 00:16:25;;;;;;;2.08;1.08;;;16.80;71.20;;;;;;5062396;28;20032;-60
2023/08/10 00:18:51;;;;;;;1.10;1.02;;;16.80;71.30;;;;;;5066145;28;20043;-62
2023/08/10 00:21:17;;;;;;;1.88;0.98;;;16.80;71.30;;;;;;5067636;28;20086;-61
2023/08/10 00:23:42;;;;;;;2.08;1.08;;;16.80;71.30;;;;;;5068065;28;20036;-61
2023/08/10 00:26:08;;;;;;;1.77;1.17;;;16.80;71.20;;;;;;5068160;28;20020;-61
2023/08/10 00:28:34;;;;;;;3.10;1.20;;;16.80;71.10;;;;;;5059298;28;20024;-61
2023/08/10 00:31:00;;;;;;;1.70;1.13;;;16.80;71.10;;;;;;5056684;28;20040;-63
2023/08/10 00:33:25;;;;;;;6.30;1.20;;;16.80;71.00;;;;;;5061781;28;20062;-63
2023/08/10 00:35:51;;;;;;;2.97;1.20;;;16.70;71.00;;;;;;5065153;28;20407;-61
2023/08/10 00:38:17;;;;;;;1.60;1.20;;;16.70;71.10;;;;;;5067674;28;20032;-61
2023/08/10 00:40:42;;;;;;;1.65;1.17;;;16.70;71.40;;;;;;5064628;28;20109;-61
2023/08/10 00:43:08;;;;;;;6.80;1.17;;;16.70;71.50;;;;;;5067949;28;20101;-63
2023/08/10 00:45:34;;;;;;;2.85;1.30;;;16.70;71.40;;;;;;5067032;28;20060;-60
2023/08/10 00:48:00;;;;;;;1.00;1.00;;;16.60;71.20;;;;;;5058061;28;20024;-61
2023/08/10 00:50:25;;;;;;;2.28;1.20;;;16.60;71.20;;;;;;5065079;28;20066;-62
2023/08/10 00:52:51;;;;;;;3.78;1.25;;;16.60;71.30;;;;;;5061916;28;20054;-62
2023/08/10 00:55:18;;;;;;;4.60;1.58;;;16.60;71.30;;;;;;5059347;28;20032;-62
2023/08/10 00:57:44;;;;;;;4.40;1.30;;;16.60;71.20;;;;;;5062338;28;20028;-61
2023/08/10 01:00:10;;;;;;;3.22;1.30;;;16.50;71.10;;;;;;5070864;28;20399;-61
2023/08/10 01:02:39;;;;;;;2.05;1.10;;;16.50;71.10;;;;;;5066800;28;20319;-61
2023/08/10 01:05:08;;;;;;;1.38;0.95;;;16.50;71.20;;;;;;5061819;28;20025;-62
2023/08/10 01:08:00;;;;;;;1.17;1.08;;;16.40;71.10;;;;;;5061294;28;20367;-62
2023/08/10 01:11:00;;;;;;;1.05;0.90;;;16.40;71.50;;;;;;5064060;28;20044;-61
2023/08/10 01:13:48;;;;;;;3.13;1.15;;;16.40;72.00;;;;;;5064798;28;20028;-61
2023/08/10 01:16:15;;;;;;;8.02;4.65;;;16.30;71.40;;;;;;5062413;28;20037;-60
2023/08/10 01:18:42;;;;;;;13.23;7.90;;;16.30;71.20;;;;;;5062923;28;20028;-62
2023/08/10 01:21:47;;;;;;;11.13;6.07;;;16.30;71.30;;;;;;5064982;28;20139;-61
2023/08/10 01:24:25;;;;;;;11.55;5.10;;;16.30;71.90;;;;;;5068208;28;20629;-62
2023/08/10 01:26:53;;;;;;;5.47;4.13;;;16.30;71.80;;;;;;5064048;28;20033;-62
2023/08/10 01:29:20;;;;;;;4.15;2.80;;;16.30;71.40;;;;;;5054976;28;20123;-62
2023/08/10 01:31:46;;;;;;;3.38;2.50;;;16.30;71.50;;;;;;5068978;28;20517;-62
2023/08/10 01:34:11;;;;;;;1.80;1.55;;;16.30;71.60;;;;;;5071082;28;20021;-62
2023/08/10 01:36:37;;;;;;;4.00;1.40;;;16.30;71.70;;;;;;5065816;28;20446;-62
2023/08/10 01:39:03;;;;;;;1.75;1.30;;;16.30;71.70;;;;;;5063324;28;20071;-62
2023/08/10 01:41:29;;;;;;;3.67;1.20;;;16.30;71.70;;;;;;5059855;28;20017;-62
2023/08/10 01:43:54;;;;;;;2.60;1.50;;;16.30;71.70;;;;;;5066611;28;20028;-61
2023/08/10 01:46:24;;;;;;;1.40;1.00;;;16.30;71.70;;;;;;5060409;28;20032;-61
2023/08/10 01:48:53;;;;;;;1.85;1.23;;;16.30;71.90;;;;;;5060669;28;20499;-61
2023/08/10 01:51:24;;;;;;;1.63;1.27;;;16.30;71.90;;;;;;5069537;28;20499;-61
2023/08/10 01:53:52;;;;;;;2.90;1.20;;;16.30;72.20;;;;;;5065601;28;20029;-61
2023/08/10 01:56:18;;;;;;;1.33;1.23;;;16.30;72.20;;;;;;5056518;28;20029;-61
2023/08/10 01:58:44;;;;;;;1.98;1.10;;;16.30;72.20;;;;;;5063546;28;20025;-61
2023/08/10 02:01:10;;;;;;;1.77;1.10;;;16.30;72.10;;;;;;5073589;28;20056;-62
2023/08/10 02:03:36;;;;;;;2.15;1.08;;;16.30;72.20;;;;;;5064219;28;20032;-62
2023/08/10 02:06:02;;;;;;;1.98;1.40;;;16.30;72.20;;;;;;5059371;28;20458;-61
2023/08/10 02:08:28;;;;;;;2.45;1.40;;;16.30;72.10;;;;;;5062145;28;20047;-62
2023/08/10 02:10:53;;;;;;;1.73;1.40;;;16.30;72.10;;;;;;5067907;28;20462;-62
2023/08/10 02:13:19;;;;;;;1.40;1.30;;;16.30;72.10;;;;;;5062233;28;20182;-61
2023/08/10 02:15:45;;;;;;;3.25;1.38;;;16.30;72.20;;;;;;5063668;28;20024;-61
2023/08/10 02:18:14;;;;;;;2.97;1.40;;;16.30;72.20;;;;;;5088228;27;20359;-62
2023/08/10 02:20:40;;;;;;;1.90;1.33;;;16.30;72.30;;;;;;5064809;28;20025;-61
2023/08/10 02:23:06;;;;;;;4.00;1.35;;;16.30;72.10;;;;;;5064799;28;20025;-61
2023/08/10 02:25:31;;;;;;;2.47;1.30;;;16.30;72.20;;;;;;5065173;28;20055;-62
2023/08/10 02:27:57;;;;;;;3.40;1.10;;;16.30;72.40;;;;;;4950482;28;20488;-61
2023/08/10 02:30:23;;;;;;;3.00;1.10;;;16.30;72.30;;;;;;5067781;28;20111;-62
2023/08/10 02:32:49;;;;;;;3.33;1.25;;;16.30;72.10;;;;;;5057397;28;20099;-61
2023/08/10 02:35:14;;;;;;;1.35;1.20;;;16.30;72.00;;;;;;5058294;28;20031;-61
2023/08/10 02:37:41;;;;;;;1.50;1.20;;;16.20;71.90;;;;;;5064996;28;20038;-61
2023/08/10 02:40:07;;;;;;;2.13;1.33;;;16.20;71.90;;;;;;5066125;28;20032;-62
2023/08/10 02:42:33;;;;;;;2.50;1.00;;;16.20;71.90;;;;;;5062549;28;20098;-61
2023/08/10 02:44:59;;;;;;;1.52;1.20;;;16.20;72.00;;;;;;5069956;28;20020;-61
2023/08/10 02:47:25;;;;;;;2.63;1.23;;;16.10;72.00;;;;;;5071745;28;20044;-62
2023/08/10 02:49:51;;;;;;;1.23;1.13;;;16.10;72.10;;;;;;5059055;28;20495;-61
2023/08/10 02:52:16;;;;;;;1.98;1.27;;;16.10;72.10;;;;;;5071679;28;20029;-61
2023/08/10 02:54:42;;;;;;;1.83;1.15;;;16.10;72.00;;;;;;5067269;28;20052;-63
2023/08/10 02:57:08;;;;;;;4.72;1.20;;;16.00;72.00;;;;;;5069997;28;20455;-61
2023/08/10 02:59:34;;;;;;;2.22;1.13;;;16.00;71.80;;;;;;5066695;28;20048;-62
2023/08/10 03:02:00;;;;;;;1.77;1.27;;;16.00;71.90;;;;;;5061798;28;20044;-61
2023/08/10 03:04:25;;;;;;;1.70;1.13;;;16.00;71.90;;;;;;5062292;28;20036;-61
2023/08/10 03:06:51;;;;;;;3.33;0.98;;;16.00;71.90;;;;;;5066506;28;20024;-61
2023/08/10 03:09:17;;;;;;;1.80;0.95;;;16.00;71.80;;;;;;5058447;28;20068;-60
2023/08/10 03:11:42;;;;;;;2.22;1.10;;;15.90;71.70;;;;;;5063841;28;20032;-61
2023/08/10 03:14:08;;;;;;;1.42;1.13;;;15.90;71.70;;;;;;5068663;28;20028;-62
2023/08/10 03:16:34;;;;;;;1.00;1.00;;;15.90;71.70;;;;;;5071364;28;20028;-61
2023/08/10 03:19:00;;;;;;;3.58;1.10;;;15.90;71.60;;;;;;5058233;28;20091;-61
2023/08/10 03:21:26;;;;;;;1.80;1.08;;;15.80;71.60;;;;;;5063440;28;20495;-63
2023/08/10 03:23:52;;;;;;;1.77;1.17;;;15.80;71.50;;;;;;5063268;28;20035;-62
2023/08/10 03:26:18;;;;;;;1.55;1.00;;;15.70;71.20;;;;;;5060065;28;20074;-62
2023/08/10 03:28:44;;;;;;;2.80;1.10;;;15.70;71.10;;;;;;5060485;28;20044;-62
2023/08/10 03:31:13;;;;;;;1.20;1.10;;;15.60;71.10;;;;;;5065779;28;20054;-62
2023/08/10 03:33:39;;;;;;;3.67;1.33;;;15.50;71.30;;;;;;5068963;28;20486;-60
2023/08/10 03:36:05;;;;;;;1.13;1.00;;;15.50;71.40;;;;;;5060642;28;20028;-61
2023/08/10 03:38:31;;;;;;;1.77;1.38;;;15.40;71.50;;;;;;5056077;28;20371;-61
2023/08/10 03:40:57;;;;;;;0.95;0.90;;;15.40;71.40;;;;;;5056787;28;20032;-61
2023/08/10 03:43:22;;;;;;;1.00;1.00;;;15.30;71.30;;;;;;5064371;28;20100;-61
2023/08/10 03:45:48;;;;;;;1.88;1.20;;;15.30;71.30;;;;;;5074218;28;20082;-61
2023/08/10 03:48:14;;;;;;;1.50;1.02;;;15.20;71.30;;;;;;5068001;28;20036;-61
2023/08/10 03:50:39;;;;;;;1.95;1.23;;;15.20;71.40;;;;;;5064148;28;20071;-61
2023/08/10 03:53:06;;;;;;;3.20;1.10;;;15.20;71.40;;;;;;5064853;28;20091;-62
2023/08/10 03:55:31;;;;;;;1.70;1.30;;;15.10;71.40;;;;;;5067885;28;20107;-62
2023/08/10 03:57:57;;;;;;;1.80;1.33;;;15.10;71.50;;;;;;5068008;28;20123;-62
2023/08/10 04:00:23;;;;;;;1.45;1.13;;;15.00;71.50;;;;;;5064971;28;20021;-63
2023/08/10 04:02:49;;;;;;;2.55;1.38;;;15.00;71.60;;;;;;5067666;28;20422;-62
2023/08/10 04:05:14;;;;;;;2.00;1.08;;;14.90;71.60;;;;;;5070131;28;20029;-61
2023/08/10 04:07:40;;;;;;;2.17;1.20;;;14.90;71.60;;;;;;5069167;28;20047;-62
2023/08/10 04:10:07;;;;;;;2.72;1.27;;;14.90;71.70;;;;;;5070361;28;20817;-62
2023/08/10 04:12:37;;;;;;;2.47;1.30;;;14.90;71.70;;;;;;5065721;28;20027;-61
2023/08/10 04:15:04;;;;;;;1.17;1.00;;;14.80;71.80;;;;;;5064890;28;20025;-62
2023/08/10 04:17:30;;;;;;;3.42;1.17;;;14.80;71.80;;;;;;5063652;28;20600;-62
2023/08/10 04:19:58;;;;;;;1.67;1.17;;;14.80;71.90;;;;;;5061801;28;20048;-62
2023/08/10 04:22:24;;;;;;;1.48;1.30;;;14.80;71.90;;;;;;5071474;28;20052;-61
2023/08/10 04:24:51;;;;;;;4.78;3.70;;;14.70;71.80;;;;;;5072026;28;20025;-61
2023/08/10 04:27:17;;;;;;;1.50;1.40;;;14.70;71.80;;;;;;5071564;28;20029;-62
2023/08/10 04:29:44;;;;;;;1.75;1.10;;;14.70;71.80;;;;;;5063655;28;20033;-61
2023/08/10 04:32:11;;;;;;;1.58;1.25;;;14.70;71.70;;;;;;5054287;28;20025;-61
2023/08/10 04:34:36;;;;;;;1.33;1.00;;;14.60;71.60;;;;;;5070010;28;20037;-61
2023/08/10 04:37:02;;;;;;;1.00;0.90;;;14.60;71.70;;;;;;5068186;28;20031;-60
2023/08/10 04:39:28;;;;;;;1.17;1.00;;;14.60;71.80;;;;;;5071225;28;20060;-61
2023/08/10 04:41:54;;;;;;;1.10;1.00;;;14.60;71.80;;;;;;5061447;28;20048;-61
2023/08/10 04:44:20;;;;;;;1.33;0.90;;;14.50;71.80;;;;;;5063345;28;20099;-61
2023/08/10 04:46:45;;;;;;;1.75;1.20;;;14.40;71.80;;;;;;5066276;28;20033;-61
2023/08/10 04:49:11;;;;;;;1.00;0.93;;;14.40;72.00;;;;;;5069101;28;20094;-61
2023/08/10 04:51:36;;;;;;;3.30;0.90;;;14.40;72.20;;;;;;5074130;28;20025;-62
2023/08/10 04:54:02;;;;;;;2.03;0.90;;;14.30;72.40;;;;;;5074839;28;20738;-62
2023/08/10 04:56:28;;;;;;;1.45;0.90;;;14.30;72.50;;;;;;5074146;28;20115;-61
2023/08/10 04:58:54;;;;;;;2.80;1.02;;;14.30;72.50;;;;;;5059084;28;20043;-61
2023/08/10 05:01:19;;;;;;;4.53;1.02;;;14.30;72.60;;;;;;5067855;28;20025;-61
2023/08/10 05:03:46;;;;;;;1.20;1.10;;;14.30;72.70;;;;;;5066025;28;20039;-61
2023/08/10 05:06:12;;;;;;;2.70;0.93;;;14.30;72.80;;;;;;5072929;28;20028;-61
2023/08/10 05:08:38;;;;;;;1.00;1.00;;;14.30;72.90;;;;;;5062491;28;20053;-61
2023/08/10 05:11:04;;;;;;;1.27;1.00;;;14.40;73.00;;;;;;5061956;28;21078;-61
2023/08/10 05:13:29;;;;;;;0.98;0.88;;;14.40;73.00;;;;;;5066083;28;20099;-61
2023/08/10 05:15:55;;;;;;;1.20;0.93;;;14.40;73.00;;;;;;5063592;28;20107;-61
2023/08/10 05:18:22;;;;;;;1.20;1.10;;;14.40;73.00;;;;;;5061125;28;20472;-61
2023/08/10 05:20:49;;;;;;;0.90;0.90;;;14.50;73.30;;;;;;5066522;28;20032;-60
2023/08/10 05:23:15;;;;;;;1.20;1.10;;;14.50;73.40;;;;;;5065178;28;20025;-62
2023/08/10 05:25:41;;;;;;;1.35;1.25;;;14.50;73.50;;;;;;5066959;28;20034;-61
2023/08/10 05:28:08;;;;;;;1.83;1.30;;;14.60;73.70;;;;;;5074351;28;20029;-61
2023/08/10 05:30:35;;;;;;;1.40;1.15;;;14.60;73.80;;;;;;5065153;28;20071;-60
2023/08/10 05:33:00;;;;;;;2.20;1.25;;;14.70;73.90;;;;;;5059723;28;20475;-61
2023/08/10 05:35:26;;;;;;;3.25;1.10;;;14.80;74.00;;;;;;5064902;28;20028;-61
2023/08/10 05:37:52;;;;;;;2.80;1.17;;;14.90;74.30;;;;;;5067510;28;20013;-61
2023/08/10 05:40:18;;;;;;;2.00;1.35;;;15.00;74.40;;;;;;5062662;28;20072;-61
2023/08/10 05:42:45;;;;;;;1.30;1.10;;;15.10;74.50;;;;;;5057491;28;20029;-61
2023/08/10 05:45:20;;;;;;;1.83;1.10;;;15.20;74.50;;;;;;5063839;28;20039;-62
2023/08/10 05:47:47;;;;;;;2.40;1.30;;;15.40;75.20;;;;;;5064472;28;20032;-61
2023/08/10 05:50:14;;;;;;;1.17;1.13;;;15.50;74.30;;;;;;5067300;28;20032;-61
2023/08/10 05:52:40;;;;;;;2.45;1.38;;;15.70;74.10;;;;;;5062881;28;20062;-61
2023/08/10 05:55:06;;;;;;;2.65;1.48;;;15.80;73.60;;;;;;5061500;28;20067;-61
2023/08/10 05:57:32;;;;;;;2.38;1.23;;;15.90;73.30;;;;;;5062478;28;20031;-61
2023/08/10 05:59:58;;;;;;;1.35;1.20;;;16.00;73.10;;;;;;5070022;28;20445;-61
2023/08/10 06:02:23;;;;;;;3.25;1.40;;;16.00;73.00;;;;;;5071046;28;20036;-61
2023/08/10 06:04:49;;;;;;;1.30;1.20;;;16.10;73.70;;;;;;5065596;28;20074;-63
2023/08/10 06:07:15;;;;;;;2.50;1.48;;;16.10;72.80;;;;;;5065306;28;20082;-62
2023/08/10 06:09:41;;;;;;;1.60;1.08;;;16.20;72.80;;;;;;5058214;28;20040;-61
2023/08/10 06:12:07;;;;;;;1.27;1.17;;;16.20;72.90;;;;;;5055009;28;20414;-61
2023/08/10 06:14:33;;;;;;;1.50;1.40;;;16.30;72.90;;;;;;5071908;28;20036;-62
2023/08/10 06:16:59;;;;;;;2.78;1.25;;;16.40;72.90;;;;;;5061285;28;20046;-62
2023/08/10 06:19:24;;;;;;;2.40;1.60;;;16.40;73.10;;;;;;5062583;28;20025;-61
2023/08/10 06:21:53;;;;;;;1.92;1.38;;;16.50;73.10;;;;;;5063437;28;20052;-61
2023/08/10 06:24:19;;;;;;;2.63;1.63;;;16.60;73.10;;;;;;5061655;28;22901;-62
2023/08/10 06:26:44;;;;;;;4.45;1.45;;;16.70;73.10;;;;;;5062859;28;20568;-62
2023/08/10 06:29:11;;;;;;;1.23;1.13;;;16.80;72.80;;;;;;5063750;28;20021;-62
2023/08/10 06:31:37;;;;;;;1.70;1.35;;;16.90;72.60;;;;;;5066327;28;20119;-62
2023/08/10 06:34:03;;;;;;;2.55;1.40;;;16.90;72.60;;;;;;5067718;28;20111;-62
2023/08/10 06:36:29;;;;;;;1.27;1.17;;;17.00;72.70;;;;;;5064596;28;20447;-62
2023/08/10 06:38:55;;;;;;;2.88;1.40;;;17.10;72.40;;;;;;5064577;28;20064;-62
2023/08/10 06:41:21;;;;;;;4.25;1.40;;;17.10;72.30;;;;;;5069508;28;20479;-62
2023/08/10 06:43:47;;;;;;;1.83;1.38;;;17.30;72.20;;;;;;5064145;28;20484;-62
2023/08/10 06:46:12;;;;;;;5.25;1.48;;;17.30;72.10;;;;;;5065527;28;20033;-62
2023/08/10 06:48:38;;;;;;;4.60;1.50;;;17.40;71.90;;;;;;5063492;28;20036;-62
2023/08/10 06:51:04;;;;;;;1.83;1.50;;;17.50;71.90;;;;;;5065964;28;20082;-63
2023/08/10 06:53:31;;;;;;;2.50;1.50;;;17.60;71.70;;;;;;5060566;28;20475;-62
2023/08/10 06:55:57;;;;;;;1.42;1.30;;;17.70;71.60;;;;;;5065721;28;20055;-61
2023/08/10 06:58:22;;;;;;;5.40;1.58;;;17.80;71.40;;;;;;5062292;28;20059;-62
2023/08/10 07:00:48;;;;;;;3.90;1.17;;;17.80;71.10;;;;;;5070576;28;20036;-62
2023/08/10 07:03:14;;;;;;;1.83;1.40;;;17.90;70.90;;;;;;5057551;28;20040;-61
2023/08/10 07:05:42;;;;;;;3.88;1.20;;;18.00;70.60;;;;;;5057716;28;20077;-62
2023/08/10 07:08:08;;;;;;;2.80;1.50;;;18.10;70.50;;;;;;5068093;28;20048;-63
2023/08/10 07:10:35;;;;;;;1.70;1.40;;;18.20;70.80;;;;;;5058115;28;20037;-63
2023/08/10 07:13:00;;;;;;;2.08;1.70;;;18.40;70.80;;;;;;5074382;28;20025;-63
2023/08/10 07:15:26;;;;;;;3.20;1.80;;;18.60;70.30;;;;;;5069473;28;20042;-63
2023/08/10 07:17:52;;;;;;;2.28;1.90;;;18.70;69.50;;;;;;5062742;28;20035;-62
2023/08/10 07:20:20;;;;;;;4.80;2.03;;;18.90;69.60;;;;;;5066684;28;20028;-61
2023/08/10 07:22:47;;;;;;;2.17;1.50;;;19.10;69.20;;;;;;5056662;28;20106;-62
2023/08/10 07:25:13;;;;;;;2.60;1.60;;;19.30;68.90;;;;;;5061901;28;20024;-62
2023/08/10 07:27:39;;;;;;;3.03;1.67;;;19.50;68.00;;;;;;5064435;28;20430;-63
2023/08/10 07:30:06;;;;;;;2.90;1.65;;;19.70;67.70;;;;;;5063639;28;20103;-63
2023/08/10 07:32:31;;;;;;;3.92;1.60;;;19.90;67.00;;;;;;5062668;28;20646;-62
2023/08/10 07:34:57;;;;;;;3.47;1.45;;;20.10;66.20;;;;;;5061446;28;20029;-63
2023/08/10 07:37:24;;;;;;;2.35;1.60;;;20.20;65.50;;;;;;5071419;28;20071;-63
2023/08/10 07:39:50;;;;;;;2.80;1.55;;;20.40;65.50;;;;;;5067457;28;20028;-62
2023/08/10 07:42:15;;;;;;;4.55;1.60;;;20.50;65.30;;;;;;5067888;28;20020;-64
2023/08/10 07:44:41;;;;;;;1.70;1.55;;;20.60;65.40;;;;;;5063146;28;20115;-63
2023/08/10 07:47:07;;;;;;;2.75;1.67;;;20.70;65.50;;;;;;5066977;28;20029;-62
2023/08/10 07:49:32;;;;;;;5.00;1.67;;;20.90;64.80;;;;;;5059976;28;20079;-62
2023/08/10 07:51:59;;;;;;;2.78;1.75;;;21.00;64.00;;;;;;5060175;28;20117;-63
2023/08/10 07:54:25;;;;;;;2.53;1.40;;;21.10;63.20;;;;;;5061089;28;20060;-63
2023/08/10 07:56:51;;;;;;;2.80;1.55;;;21.20;63.00;;;;;;5060041;28;20036;-63
2023/08/10 07:59:16;;;;;;;2.72;1.40;;;21.30;62.80;;;;;;5056343;28;20086;-63
2023/08/10 08:01:42;;;;;;;2.08;1.55;;;21.40;62.60;;;;;;5059625;28;20420;-63
2023/08/10 08:04:08;;;;;;;2.58;1.45;;;21.50;62.20;;;;;;5057979;28;20429;-64
2023/08/10 08:06:36;;;;;;;8.40;1.67;;;21.60;62.10;;;;;;5058072;28;20032;-63
2023/08/10 08:09:04;;;;;;;2.72;1.17;;;21.60;61.70;;;;;;5059444;28;20053;-62
2023/08/10 08:11:30;;;;;;;5.43;1.40;;;21.70;61.60;;;;;;5058425;28;20079;-63
2023/08/10 08:13:55;;;;;;;2.42;1.60;;;21.70;61.50;;;;;;5063867;28;20032;-63
2023/08/10 08:16:21;;;;;;;1.98;1.40;;;21.80;61.40;;;;;;5068521;28;20390;-63
2023/08/10 08:18:54;;;;;;;2.67;1.50;;;21.90;60.90;;;;;;5065984;28;20066;-63
2023/08/10 08:21:25;;;;;;;1.52;1.42;;;22.00;60.40;;;;;;5061789;28;20143;-62
2023/08/10 08:23:52;;;;;;;1.40;1.20;;;22.00;60.50;;;;;;5063212;28;20044;-63
2023/08/10 08:26:19;;;;;;;2.28;1.75;;;22.10;60.90;;;;;;5061062;28;20025;-63
2023/08/10 08:28:46;;;;;;;4.10;1.70;;;22.20;60.50;;;;;;5060904;28;20021;-64
2023/08/10 08:31:13;;;;;;;3.50;1.67;;;22.20;60.20;;;;;;5063222;28;20033;-62
2023/08/10 08:33:39;;;;;;;1.48;1.27;;;22.30;59.80;;;;;;5064853;28;20033;-64
2023/08/10 08:36:06;;;;;;;1.95;1.70;;;22.40;60.00;;;;;;5066820;28;20059;-65
2023/08/10 08:38:32;;;;;;;2.40;1.30;;;22.50;59.90;;;;;;5055706;28;20079;-64
2023/08/10 08:41:03;;;;;;;1.60;1.38;;;22.70;59.60;;;;;;5067125;28;20029;-64
2023/08/10 08:43:29;;;;;;;11.60;4.20;;;22.80;58.80;;;;;;5060348;28;20025;-63
2023/08/10 08:45:58;;;;;;;3.65;1.40;;;22.90;58.80;;;;;;5063494;28;20067;-64
2023/08/10 08:48:29;;;;;;;1.63;1.40;;;23.00;58.10;;;;;;5065597;28;20090;-63
2023/08/10 08:50:56;;;;;;;6.18;1.30;;;23.10;58.00;;;;;;5074491;28;20033;-63
2023/08/10 08:53:22;;;;;;;1.70;1.38;;;23.20;57.70;;;;;;5068524;28;20028;-64
2023/08/10 08:55:48;;;;;;;4.63;2.00;;;23.30;57.60;;;;;;5065805;28;20029;-64
2023/08/10 08:58:15;;;;;;;1.95;1.30;;;23.30;57.90;;;;;;5065394;28;20025;-63
2023/08/10 09:00:46;;;;;;;1.33;1.23;;;23.40;57.70;;;;;;5067910;28;20396;-64
2023/08/10 09:03:12;;;;;;;2.45;1.20;;;23.50;57.70;;;;;;5062812;28;20029;-64
2023/08/10 09:05:37;;;;;;;1.48;1.38;;;23.60;57.70;;;;;;5067782;28;20031;-62
2023/08/10 09:08:03;;;;;;;3.70;1.40;;;23.80;57.60;;;;;;5066031;28;20048;-63
2023/08/10 09:10:29;;;;;;;2.33;1.23;;;23.90;57.60;;;;;;5069295;28;20422;-63
2023/08/10 09:12:55;;;;;;;2.22;1.40;;;24.00;57.30;;;;;;5070558;28;20115;-65
2023/08/10 09:15:22;;;;;;;2.40;1.30;;;24.20;56.50;;;;;;5061533;28;20619;-64
2023/08/10 09:17:51;;;;;;;1.58;1.20;;;24.30;56.20;;;;;;5066826;28;20032;-64
2023/08/10 09:20:20;;;;;;;1.48;1.38;;;24.40;56.10;;;;;;5061201;28;20375;-63
2023/08/10 09:22:46;;;;;;;1.83;1.50;;;24.50;55.80;;;;;;5070001;28;20020;-64
2023/08/10 09:25:12;;;;;;;2.05;1.60;;;24.50;55.60;;;;;;5064705;28;20036;-64
2023/08/10 09:27:38;;;;;;;1.80;1.17;;;24.50;55.10;;;;;;4969643;28;20037;-64
2023/08/10 09:30:06;;;;;;;2.47;1.20;;;24.50;54.70;;;;;;5067651;28;20056;-64
2023/08/10 09:32:33;;;;;;;1.45;1.10;;;24.60;54.30;;;;;;5060102;28;20032;-64
2023/08/10 09:34:58;;;;;;;5.72;1.30;;;24.60;54.40;;;;;;5066981;28;20033;-63
2023/08/10 09:37:25;;;;;;;2.53;1.40;;;24.70;54.40;;;;;;5070083;28;20337;-64
2023/08/10 09:39:57;;;;;;;5.75;1.27;;;24.80;54.70;;;;;;5068537;28;20039;-64
2023/08/10 09:42:24;;;;;;;1.92;1.15;;;24.90;53.20;;;;;;5064239;28;20817;-64
2023/08/10 09:44:51;;;;;;;1.80;1.30;;;24.90;52.90;;;;;;5069798;28;20036;-64
2023/08/10 09:47:18;;;;;;;2.25;1.35;;;25.00;52.40;;;;;;5061846;28;20028;-64
2023/08/10 09:49:58;;;;;;;4.22;1.60;;;25.00;51.70;;;;;;5063470;28;20055;-64
2023/08/10 09:52:25;;;;;;;1.60;1.15;;;25.00;51.10;;;;;;5063846;28;20035;-63
2023/08/10 09:54:52;;;;;;;4.00;1.38;;;25.10;52.50;;;;;;5063849;28;20024;-64
2023/08/10 09:57:19;;;;;;;1.50;1.10;;;25.20;52.70;;;;;;5061948;28;20353;-63
2023/08/10 09:59:46;;;;;;;1.85;1.20;;;25.30;52.20;;;;;;5070438;28;20533;-65
2023/08/10 10:02:13;;;;;;;2.90;1.38;;;25.40;52.50;;;;;;5068111;28;20025;-64
2023/08/10 10:04:39;;;;;;;1.50;1.23;;;25.40;52.20;;;;;;5072598;28;20035;-64
2023/08/10 10:07:07;;;;;;;3.13;1.30;;;25.60;51.80;;;;;;5065603;28;20390;-65
2023/08/10 10:09:38;;;;;;;1.67;1.23;;;25.60;50.80;;;;;;5062262;28;20052;-65
2023/08/10 10:12:12;;;;;;;2.45;1.20;;;25.70;51.00;;;;;;5067162;28;20055;-64
2023/08/10 10:14:42;;;;;;;6.97;1.30;;;25.80;50.20;;;;;;5064868;28;20498;-64
2023/08/10 10:17:18;;;;;;;1.85;1.50;;;25.90;50.50;;;;;;5058764;28;20028;-64
2023/08/10 10:19:45;;;;;;;5.18;1.05;;;26.00;50.20;;;;;;5058587;28;20029;-64
2023/08/10 10:22:11;;;;;;;2.53;1.60;;;26.10;50.40;;;;;;5060208;28;20033;-64
2023/08/10 10:24:41;;;;;;;1.63;1.13;;;26.10;49.90;;;;;;5062265;28;20430;-64
2023/08/10 10:27:09;;;;;;;1.23;1.13;;;26.10;49.70;;;;;;5057635;28;20455;-63
2023/08/10 10:29:45;;;;;;;1.40;1.08;;;26.10;49.30;;;;;;5062930;28;20036;-64
2023/08/10 10:32:14;;;;;;;2.25;1.15;;;26.00;49.80;;;;;;5063792;28;20047;-66
2023/08/10 10:34:40;;;;;;;1.30;1.17;;;26.00;49.60;;;;;;5058225;28;20059;-65
2023/08/10 10:37:14;;;;;;;1.98;1.33;;;26.00;49.50;;;;;;5051686;28;20039;-64
2023/08/10 10:39:41;;;;;;;1.73;1.15;;;26.00;49.20;;;;;;5065432;28;20698;-64
2023/08/10 10:42:13;;;;;;;1.55;1.27;;;26.00;48.90;;;;;;5061766;28;20029;-63
2023/08/10 10:45:06;;;;;;;1.27;1.10;;;26.00;48.90;;;;;;5062982;28;20056;-63
2023/08/10 10:47:35;;;;;;;1.67;1.30;;;26.00;47.80;;;;;;5068732;28;20051;-64
2023/08/10 10:50:14;;;;;;;3.05;1.30;;;26.00;49.20;;;;;;5064706;28;20421;-63
2023/08/10 10:52:39;;;;;;;1.48;1.20;;;26.00;47.70;;;;;;5063200;28;20020;-65
2023/08/10 10:55:09;;;;;;;3.17;1.20;;;26.10;49.10;;;;;;5064562;28;20135;-64
2023/08/10 10:57:38;;;;;;;1.10;1.00;;;26.10;48.30;;;;;;5065002;28;20020;-64
2023/08/10 11:00:05;;;;;;;1.25;1.10;;;26.10;47.70;;;;;;5063982;28;20016;-64
2023/08/10 11:02:31;;;;;;;5.55;1.55;;;26.20;47.70;;;;;;5060525;28;20028;-63
2023/08/10 11:04:56;;;;;;;1.67;1.10;;;26.20;47.90;;;;;;5064433;28;20023;-63
2023/08/10 11:07:22;;;;;;;1.75;1.20;;;26.20;48.00;;;;;;5059175;28;20531;-64
2023/08/10 11:09:49;;;;;;;3.25;1.35;;;26.30;47.70;;;;;;5063393;28;20357;-65
2023/08/10 11:12:17;;;;;;;2.00;1.20;;;26.30;48.10;;;;;;5065947;28;20044;-64
2023/08/10 11:14:43;;;;;;;2.58;1.20;;;26.40;48.20;;;;;;5068957;28;20086;-64
2023/08/10 11:17:09;;;;;;;1.92;1.15;;;26.50;48.30;;;;;;5061548;28;20024;-64
2023/08/10 11:19:35;;;;;;;1.63;1.20;;;26.60;47.20;;;;;;5061498;28;20031;-64
2023/08/10 11:22:00;;;;;;;1.67;1.20;;;26.70;46.50;;;;;;5061722;28;20028;-64
2023/08/10 11:24:30;;;;;;;1.58;1.20;;;26.70;46.90;;;;;;5065059;28;20045;-64
2023/08/10 11:26:57;;;;;;;2.08;1.25;;;26.80;46.80;;;;;;5066762;28;20036;-63
2023/08/10 11:29:22;;;;;;;1.98;1.30;;;27.00;46.60;;;;;;5060201;28;20078;-63
2023/08/10 11:31:49;;;;;;;1.20;1.10;;;27.00;46.10;;;;;;5061049;28;20040;-64
2023/08/10 11:34:22;;;;;;;1.00;0.98;;;27.00;46.40;;;;;;5056858;28;20094;-63
2023/08/10 11:36:48;;;;;;;4.50;1.20;;;27.00;45.80;;;;;;5062185;28;20037;-63
2023/08/10 11:39:14;;;;;;;1.30;1.20;;;27.00;46.80;;;;;;5064471;28;20134;-63
2023/08/10 11:41:45;;;;;;;1.58;1.40;;;27.00;46.70;;;;;;5065173;28;20501;-63
2023/08/10 11:44:28;;;;;;;1.55;1.20;;;27.10;45.70;;;;;;5063211;28;20356;-63
2023/08/10 11:46:59;;;;;;;1.95;0.95;;;27.10;45.90;;;;;;5054610;28;20489;-64
2023/08/10 11:49:29;;;;;;;3.10;1.60;;;27.20;45.90;;;;;;5065594;28;20368;-64
2023/08/10 11:51:59;;;;;;;1.60;1.25;;;27.30;44.80;;;;;;5062188;28;20082;-64
2023/08/10 11:54:37;;;;;;;2.40;1.17;;;27.40;44.40;;;;;;5051971;28;20035;-64
2023/08/10 11:57:12;;;;;;;2.90;1.23;;;27.50;43.70;;;;;;5066091;28;20490;-63
2023/08/10 11:59:38;;;;;;;1.38;1.23;;;27.50;43.40;;;;;;5063344;28;20083;-63
2023/08/10 12:02:04;;;;;;;1.35;1.10;;;27.60;44.90;;;;;;5070217;28;20052;-63
2023/08/10 12:04:33;;;;;;;2.05;1.30;;;27.60;45.40;;;;;;5069309;28;20035;-64
2023/08/10 12:07:00;;;;;;;1.90;1.10;;;27.70;44.40;;;;;;5064055;28;20036;-64
2023/08/10 12:09:31;;;;;;;1.15;1.05;;;27.80;44.20;;;;;;5061389;28;20047;-64
2023/08/10 12:11:58;;;;;;;1.38;1.20;;;28.00;44.60;;;;;;5062289;28;20087;-64
2023/08/10 12:14:26;;;;;;;1.42;1.02;;;28.00;42.20;;;;;;5070480;28;20117;-63
2023/08/10 12:16:52;;;;;;;3.72;1.20;;;28.00;41.60;;;;;;5069175;28;20050;-63
2023/08/10 12:19:19;;;;;;;2.00;1.20;;;28.00;42.70;;;;;;5071614;28;20138;-63
2023/08/10 12:21:46;;;;;;;1.50;1.00;;;28.00;42.40;;;;;;5066461;28;20077;-64
2023/08/10 12:24:12;;;;;;;1.58;1.30;;;28.00;42.80;;;;;;5068154;28;20013;-64
2023/08/10 12:26:37;;;;;;;1.42;1.02;;;28.00;43.30;;;;;;5076256;28;20119;-64
2023/08/10 12:29:03;;;;;;;2.63;1.20;;;28.20;43.90;;;;;;4981639;28;20488;-63
2023/08/10 12:31:29;;;;;;;1.52;1.20;;;28.30;43.30;;;;;;5064701;28;20048;-63
2023/08/10 12:33:56;;;;;;;2.00;0.90;;;28.40;43.30;;;;;;5056499;28;20069;-64
2023/08/10 12:36:22;;;;;;;1.13;0.95;;;28.50;43.90;;;;;;5063181;28;20466;-64
2023/08/10 12:38:48;;;;;;;2.22;1.33;;;28.60;42.70;;;;;;5066843;28;20028;-64
2023/08/10 12:41:14;;;;;;;2.05;1.38;;;28.70;42.30;;;;;;5066402;28;20028;-64
2023/08/10 12:43:40;;;;;;;2.88;1.20;;;28.80;42.60;;;;;;5063941;28;20024;-64
2023/08/10 12:46:06;;;;;;;2.10;1.30;;;28.90;41.90;;;;;;5060120;28;20036;-64